sensor_id;sensor_type;location;lat;lon;timestamp;P1;durP1;ratioP1;P2;durP2;ratioP2
54845;SDS011;53889;50.084;8.646;2024-01-15T04:28:53;30.67;;;11.55;;
54845;SDS011;53889;50.084;8.646;2024-01-15T04:31:21;30.48;;;12.00;;
54845;SDS011;53889;50.084;8.646;2024-01-15T04:33:48;28.63;;;11.25;;
54845;SDS011;53889;50.084;8.646;2024-01-15T04:36:15;27.48;;;10.80;;
54845;SDS011;53889;50.084;8.646;2024-01-15T04:38:42;28.88;;;11.00;;
54845;SDS011;53889;50.084;8.646;2024-01-15T04:41:09;30.55;;;11.55;;
54845;SDS011;53889;50.084;8.646;2024-01-15T04:43:37;32.40;;;12.13;;
54845;SDS011;53889;50.084;8.646;2024-01-15T04:46:06;30.55;;;11.35;;
54845;SDS011;53889;50.084;8.646;2024-01-15T04:48:33;30.25;;;12.15;;
54845;SDS011;53889;50.084;8.646;2024-01-15T04:51:00;31.95;;;12.40;;
54845;SDS011;53889;50.084;8.646;2024-01-15T04:53:28;31.85;;;11.93;;
54845;SDS011;53889;50.084;8.646;2024-01-15T04:55:55;31.88;;;13.07;;
54845;SDS011;53889;50.084;8.646;2024-01-15T04:58:22;34.15;;;13.07;;
54845;SDS011;53889;50.084;8.646;2024-01-15T05:00:52;34.38;;;13.90;;
54845;SDS011;53889;50.084;8.646;2024-01-15T05:03:21;36.28;;;13.63;;
54845;SDS011;53889;50.084;8.646;2024-01-15T05:05:48;34.65;;;13.55;;
54845;SDS011;53889;50.084;8.646;2024-01-15T05:08:16;35.70;;;13.93;;
54845;SDS011;53889;50.084;8.646;2024-01-15T05:10:43;34.33;;;13.52;;
54845;SDS011;53889;50.084;8.646;2024-01-15T05:13:11;34.70;;;12.93;;
54845;SDS011;53889;50.084;8.646;2024-01-15T05:15:38;29.63;;;12.73;;
54845;SDS011;53889;50.084;8.646;2024-01-15T05:18:06;34.58;;;12.48;;
54845;SDS011;53889;50.084;8.646;2024-01-15T05:20:33;29.55;;;12.40;;
54845;SDS011;53889;50.084;8.646;2024-01-15T05:23:01;26.95;;;11.27;;
54845;SDS011;53889;50.084;8.646;2024-01-15T05:25:29;29.40;;;12.27;;
54845;SDS011;53889;50.084;8.646;2024-01-15T05:27:56;34.22;;;13.05;;
54845;SDS011;53889;50.084;8.646;2024-01-15T05:30:24;28.45;;;12.05;;
54845;SDS011;53889;50.084;8.646;2024-01-15T05:32:52;33.40;;;11.73;;
54845;SDS011;53889;50.084;8.646;2024-01-15T05:35:22;34.10;;;12.18;;
54845;SDS011;53889;50.084;8.646;2024-01-15T05:37:50;32.20;;;11.88;;
54845;SDS011;53889;50.084;8.646;2024-01-15T05:40:18;36.67;;;13.50;;
54845;SDS011;53889;50.084;8.646;2024-01-15T05:42:46;28.63;;;11.68;;
54845;SDS011;53889;50.084;8.646;2024-01-15T05:45:14;32.28;;;11.68;;
54845;SDS011;53889;50.084;8.646;2024-01-15T05:47:41;30.40;;;11.73;;
54845;SDS011;53889;50.084;8.646;2024-01-15T05:50:09;32.97;;;12.48;;
54845;SDS011;53889;50.084;8.646;2024-01-15T05:52:38;32.60;;;13.02;;
54845;SDS011;53889;50.084;8.646;2024-01-15T05:55:07;37.10;;;12.68;;
54845;SDS011;53889;50.084;8.646;2024-01-15T05:57:35;34.15;;;12.93;;
54845;SDS011;53889;50.084;8.646;2024-01-15T06:00:03;30.23;;;11.45;;
54845;SDS011;53889;50.084;8.646;2024-01-15T06:02:31;34.17;;;13.45;;
54845;SDS011;53889;50.084;8.646;2024-01-15T06:04:59;34.35;;;13.05;;
54845;SDS011;53889;50.084;8.646;2024-01-15T06:07:28;30.15;;;11.85;;
54845;SDS011;53889;50.084;8.646;2024-01-15T06:09:55;29.98;;;12.18;;
54845;SDS011;53889;50.084;8.646;2024-01-15T06:12:24;30.30;;;12.48;;
54845;SDS011;53889;50.084;8.646;2024-01-15T06:14:53;33.83;;;12.25;;
54845;SDS011;53889;50.084;8.646;2024-01-15T06:17:20;34.22;;;13.25;;
54845;SDS011;53889;50.084;8.646;2024-01-15T06:19:48;33.80;;;13.00;;
54845;SDS011;53889;50.084;8.646;2024-01-15T06:22:18;31.20;;;12.45;;
54845;SDS011;53889;50.084;8.646;2024-01-15T06:24:46;39.47;;;14.23;;
54845;SDS011;53889;50.084;8.646;2024-01-15T06:27:15;34.25;;;13.10;;
54845;SDS011;53889;50.084;8.646;2024-01-15T06:29:46;36.92;;;13.98;;
54845;SDS011;53889;50.084;8.646;2024-01-15T06:32:16;40.20;;;14.75;;
54845;SDS011;53889;50.084;8.646;2024-01-15T06:34:44;34.30;;;13.70;;
54845;SDS011;53889;50.084;8.646;2024-01-15T06:37:12;35.70;;;14.23;;
54845;SDS011;53889;50.084;8.646;2024-01-15T06:39:40;35.90;;;14.05;;
54845;SDS011;53889;50.084;8.646;2024-01-15T06:42:08;35.95;;;12.95;;
54845;SDS011;53889;50.084;8.646;2024-01-15T06:44:36;34.20;;;14.23;;
54845;SDS011;53889;50.084;8.646;2024-01-15T06:47:05;32.22;;;13.15;;
54845;SDS011;53889;50.084;8.646;2024-01-15T06:49:34;37.97;;;14.52;;
54845;SDS011;53889;50.084;8.646;2024-01-15T06:52:02;34.90;;;13.95;;
54845;SDS011;53889;50.084;8.646;2024-01-15T06:54:30;37.38;;;14.63;;
54845;SDS011;53889;50.084;8.646;2024-01-15T06:56:59;38.15;;;14.32;;
54845;SDS011;53889;50.084;8.646;2024-01-15T06:59:27;35.92;;;15.35;;
54845;SDS011;53889;50.084;8.646;2024-01-15T07:01:56;34.63;;;14.10;;
54845;SDS011;53889;50.084;8.646;2024-01-15T07:04:27;34.50;;;14.13;;
54845;SDS011;53889;50.084;8.646;2024-01-15T07:06:56;35.92;;;13.60;;
54845;SDS011;53889;50.084;8.646;2024-01-15T07:09:24;35.22;;;14.38;;
54845;SDS011;53889;50.084;8.646;2024-01-15T07:11:52;34.60;;;13.45;;
54845;SDS011;53889;50.084;8.646;2024-01-15T07:14:22;34.60;;;13.38;;
54845;SDS011;53889;50.084;8.646;2024-01-15T07:16:50;31.35;;;13.10;;
54845;SDS011;53889;50.084;8.646;2024-01-15T07:19:19;35.33;;;12.85;;
54845;SDS011;53889;50.084;8.646;2024-01-15T07:21:52;37.75;;;13.98;;
54845;SDS011;53889;50.084;8.646;2024-01-15T07:24:19;33.45;;;12.57;;
54845;SDS011;53889;50.084;8.646;2024-01-15T07:26:53;32.83;;;12.82;;
54845;SDS011;53889;50.084;8.646;2024-01-15T07:29:21;34.28;;;13.45;;
54845;SDS011;53889;50.084;8.646;2024-01-15T07:31:50;32.83;;;12.82;;
54845;SDS011;53889;50.084;8.646;2024-01-15T07:34:20;33.70;;;12.48;;
54845;SDS011;53889;50.084;8.646;2024-01-15T07:36:48;34.55;;;12.95;;
54845;SDS011;53889;50.084;8.646;2024-01-15T07:39:18;31.63;;;13.85;;
54845;SDS011;53889;50.084;8.646;2024-01-15T07:41:59;33.03;;;13.77;;
54845;SDS011;53889;50.084;8.646;2024-01-15T07:44:27;32.40;;;13.63;;
54845;SDS011;53889;50.084;8.646;2024-01-15T07:46:55;31.65;;;13.52;;
54845;SDS011;53889;50.084;8.646;2024-01-15T07:49:23;33.85;;;13.32;;
54845;SDS011;53889;50.084;8.646;2024-01-15T07:51:50;33.13;;;13.85;;
54845;SDS011;53889;50.084;8.646;2024-01-15T07:54:19;29.05;;;12.40;;
54845;SDS011;53889;50.084;8.646;2024-01-15T07:56:56;31.77;;;13.13;;
54845;SDS011;53889;50.084;8.646;2024-01-15T07:59:24;37.15;;;16.05;;
54845;SDS011;53889;50.084;8.646;2024-01-15T08:01:54;31.92;;;13.13;;
54845;SDS011;53889;50.084;8.646;2024-01-15T08:04:22;35.95;;;14.32;;
54845;SDS011;53889;50.084;8.646;2024-01-15T08:06:50;27.40;;;12.82;;
54845;SDS011;53889;50.084;8.646;2024-01-15T08:09:19;30.38;;;13.60;;
54845;SDS011;53889;50.084;8.646;2024-01-15T08:11:46;30.42;;;12.98;;
54845;SDS011;53889;50.084;8.646;2024-01-15T08:14:17;32.33;;;13.05;;
54845;SDS011;53889;50.084;8.646;2024-01-15T08:16:46;33.65;;;14.18;;
54845;SDS011;53889;50.084;8.646;2024-01-15T08:19:13;32.75;;;13.02;;
54845;SDS011;53889;50.084;8.646;2024-01-15T08:21:47;33.15;;;14.18;;
54845;SDS011;53889;50.084;8.646;2024-01-15T08:24:19;32.75;;;13.10;;
54845;SDS011;53889;50.084;8.646;2024-01-15T08:26:47;32.58;;;12.98;;
54845;SDS011;53889;50.084;8.646;2024-01-15T08:29:15;32.08;;;12.65;;
54845;SDS011;53889;50.084;8.646;2024-01-15T08:31:44;32.67;;;13.93;;
54845;SDS011;53889;50.084;8.646;2024-01-15T08:34:12;32.90;;;12.85;;
54845;SDS011;53889;50.084;8.646;2024-01-15T08:36:48;30.38;;;12.75;;
54845;SDS011;53889;50.084;8.646;2024-01-15T08:39:21;33.83;;;13.98;;
54845;SDS011;53889;50.084;8.646;2024-01-15T08:41:49;32.05;;;13.77;;
54845;SDS011;53889;50.084;8.646;2024-01-15T08:44:21;28.60;;;13.35;;
54845;SDS011;53889;50.084;8.646;2024-01-15T08:46:49;30.70;;;12.20;;
54845;SDS011;53889;50.084;8.646;2024-01-15T08:49:17;28.58;;;12.38;;
54845;SDS011;53889;50.084;8.646;2024-01-15T08:51:48;33.28;;;12.95;;
54845;SDS011;53889;50.084;8.646;2024-01-15T09:02:33;32.35;;;13.77;;
54845;SDS011;53889;50.084;8.646;2024-01-15T09:05:01;28.23;;;12.85;;
54845;SDS011;53889;50.084;8.646;2024-01-15T09:07:30;30.55;;;12.80;;
54845;SDS011;53889;50.084;8.646;2024-01-15T09:09:58;23.95;;;11.30;;
54845;SDS011;53889;50.084;8.646;2024-01-15T09:12:26;28.48;;;11.80;;
54845;SDS011;53889;50.084;8.646;2024-01-15T11:07:56;19.17;;;9.50;;
54845;SDS011;53889;50.084;8.646;2024-01-15T11:10:41;18.23;;;9.50;;
54845;SDS011;53889;50.084;8.646;2024-01-15T11:13:13;16.90;;;8.98;;
54845;SDS011;53889;50.084;8.646;2024-01-15T11:16:00;15.98;;;9.00;;
54845;SDS011;53889;50.084;8.646;2024-01-15T11:18:29;18.73;;;9.77;;
54845;SDS011;53889;50.084;8.646;2024-01-15T11:23:53;21.02;;;10.02;;
54845;SDS011;53889;50.084;8.646;2024-01-15T11:26:32;19.10;;;9.27;;
54845;SDS011;53889;50.084;8.646;2024-01-15T11:29:01;17.00;;;9.48;;
54845;SDS011;53889;50.084;8.646;2024-01-15T11:40:40;18.98;;;10.10;;
54845;SDS011;53889;50.084;8.646;2024-01-15T11:43:13;20.02;;;10.60;;
54845;SDS011;53889;50.084;8.646;2024-01-15T11:45:46;17.55;;;9.30;;
54845;SDS011;53889;50.084;8.646;2024-01-15T11:48:18;19.67;;;9.85;;
54845;SDS011;53889;50.084;8.646;2024-01-15T11:51:16;19.30;;;9.55;;
54845;SDS011;53889;50.084;8.646;2024-01-15T11:54:13;20.23;;;9.73;;
54845;SDS011;53889;50.084;8.646;2024-01-15T12:00:49;17.77;;;8.90;;
54845;SDS011;53889;50.084;8.646;2024-01-15T12:03:17;23.73;;;10.20;;
54845;SDS011;53889;50.084;8.646;2024-01-15T12:13:08;16.13;;;8.15;;
54845;SDS011;53889;50.084;8.646;2024-01-15T12:15:41;17.98;;;8.82;;
54845;SDS011;53889;50.084;8.646;2024-01-15T12:23:06;16.55;;;8.63;;
54845;SDS011;53889;50.084;8.646;2024-01-15T12:25:43;16.85;;;9.55;;
54845;SDS011;53889;50.084;8.646;2024-01-15T12:28:11;17.58;;;8.63;;
54845;SDS011;53889;50.084;8.646;2024-01-15T12:30:38;15.20;;;8.50;;
54845;SDS011;53889;50.084;8.646;2024-01-15T12:33:06;15.63;;;8.45;;
54845;SDS011;53889;50.084;8.646;2024-01-15T12:35:33;17.15;;;8.50;;
54845;SDS011;53889;50.084;8.646;2024-01-15T12:38:02;15.82;;;7.90;;
54845;SDS011;53889;50.084;8.646;2024-01-15T12:40:30;16.33;;;7.20;;
54845;SDS011;53889;50.084;8.646;2024-01-15T12:42:58;16.45;;;7.43;;
54845;SDS011;53889;50.084;8.646;2024-01-15T12:45:25;13.98;;;7.38;;
54845;SDS011;53889;50.084;8.646;2024-01-15T12:47:52;12.73;;;7.15;;
54845;SDS011;53889;50.084;8.646;2024-01-15T12:50:23;13.13;;;6.50;;
54845;SDS011;53889;50.084;8.646;2024-01-15T12:52:50;15.50;;;7.03;;
54845;SDS011;53889;50.084;8.646;2024-01-15T12:55:19;13.88;;;6.90;;
54845;SDS011;53889;50.084;8.646;2024-01-15T12:57:46;12.73;;;7.15;;
54845;SDS011;53889;50.084;8.646;2024-01-15T13:00:13;12.75;;;6.88;;
54845;SDS011;53889;50.084;8.646;2024-01-15T13:02:40;14.70;;;6.95;;
54845;SDS011;53889;50.084;8.646;2024-01-15T13:05:08;14.95;;;7.20;;
54845;SDS011;53889;50.084;8.646;2024-01-15T13:07:36;14.40;;;6.90;;
54845;SDS011;53889;50.084;8.646;2024-01-15T13:10:03;13.02;;;6.82;;
54845;SDS011;53889;50.084;8.646;2024-01-15T13:12:31;12.30;;;6.70;;
54845;SDS011;53889;50.084;8.646;2024-01-15T13:14:58;11.85;;;6.35;;
54845;SDS011;53889;50.084;8.646;2024-01-15T13:17:28;17.48;;;7.32;;
54845;SDS011;53889;50.084;8.646;2024-01-15T13:19:55;13.27;;;6.95;;
54845;SDS011;53889;50.084;8.646;2024-01-15T13:22:22;12.48;;;6.93;;
54845;SDS011;53889;50.084;8.646;2024-01-15T13:24:54;12.68;;;6.57;;
54845;SDS011;53889;50.084;8.646;2024-01-15T13:27:41;15.52;;;6.55;;
54845;SDS011;53889;50.084;8.646;2024-01-15T13:30:11;11.85;;;6.57;;
54845;SDS011;53889;50.084;8.646;2024-01-15T13:32:38;13.43;;;6.53;;
54845;SDS011;53889;50.084;8.646;2024-01-15T13:35:06;13.07;;;6.57;;
54845;SDS011;53889;50.084;8.646;2024-01-15T13:37:34;14.63;;;6.90;;
54845;SDS011;53889;50.084;8.646;2024-01-15T13:40:02;12.55;;;6.72;;
54845;SDS011;53889;50.084;8.646;2024-01-15T13:42:32;12.20;;;6.65;;
54845;SDS011;53889;50.084;8.646;2024-01-15T13:44:59;14.40;;;7.38;;
54845;SDS011;53889;50.084;8.646;2024-01-15T13:47:27;13.35;;;6.35;;
54845;SDS011;53889;50.084;8.646;2024-01-15T13:49:54;12.23;;;6.45;;
54845;SDS011;53889;50.084;8.646;2024-01-15T13:52:21;12.02;;;6.60;;
54845;SDS011;53889;50.084;8.646;2024-01-15T13:54:48;14.13;;;6.43;;
54845;SDS011;53889;50.084;8.646;2024-01-15T13:57:15;12.00;;;6.22;;
54845;SDS011;53889;50.084;8.646;2024-01-15T13:59:42;11.07;;;5.55;;
54845;SDS011;53889;50.084;8.646;2024-01-15T14:02:09;12.52;;;5.65;;
54845;SDS011;53889;50.084;8.646;2024-01-15T14:04:37;12.02;;;5.50;;
54845;SDS011;53889;50.084;8.646;2024-01-15T14:07:04;10.98;;;5.90;;
54845;SDS011;53889;50.084;8.646;2024-01-15T14:09:32;10.52;;;5.50;;
54845;SDS011;53889;50.084;8.646;2024-01-15T14:11:59;13.23;;;6.15;;
54845;SDS011;53889;50.084;8.646;2024-01-15T14:14:26;10.95;;;5.80;;
54845;SDS011;53889;50.084;8.646;2024-01-15T14:16:52;10.60;;;5.35;;
54845;SDS011;53889;50.084;8.646;2024-01-15T14:19:19;11.82;;;5.70;;
54845;SDS011;53889;50.084;8.646;2024-01-15T14:21:48;11.27;;;5.60;;
54845;SDS011;53889;50.084;8.646;2024-01-15T14:24:21;10.73;;;5.47;;
54845;SDS011;53889;50.084;8.646;2024-01-15T14:26:53;12.57;;;6.55;;
54845;SDS011;53889;50.084;8.646;2024-01-15T14:29:23;12.73;;;6.30;;
54845;SDS011;53889;50.084;8.646;2024-01-15T14:31:52;14.90;;;5.85;;
54845;SDS011;53889;50.084;8.646;2024-01-15T14:34:19;10.38;;;5.30;;
54845;SDS011;53889;50.084;8.646;2024-01-15T14:36:50;11.88;;;5.93;;
54845;SDS011;53889;50.084;8.646;2024-01-15T14:39:20;12.55;;;5.80;;
54845;SDS011;53889;50.084;8.646;2024-01-15T14:41:48;10.35;;;5.45;;
54845;SDS011;53889;50.084;8.646;2024-01-15T14:44:15;11.82;;;5.55;;
54845;SDS011;53889;50.084;8.646;2024-01-15T14:46:42;12.02;;;5.50;;
54845;SDS011;53889;50.084;8.646;2024-01-15T14:49:09;11.13;;;5.68;;
54845;SDS011;53889;50.084;8.646;2024-01-15T14:51:35;11.32;;;6.03;;
54845;SDS011;53889;50.084;8.646;2024-01-15T14:54:04;11.20;;;5.32;;
54845;SDS011;53889;50.084;8.646;2024-01-15T14:56:32;11.38;;;5.95;;
54845;SDS011;53889;50.084;8.646;2024-01-15T14:58:59;10.30;;;4.93;;
54845;SDS011;53889;50.084;8.646;2024-01-15T15:01:25;10.25;;;5.15;;
54845;SDS011;53889;50.084;8.646;2024-01-15T15:03:52;10.98;;;5.60;;
54845;SDS011;53889;50.084;8.646;2024-01-15T15:06:19;14.65;;;6.57;;
54845;SDS011;53889;50.084;8.646;2024-01-15T15:08:46;12.73;;;6.70;;
54845;SDS011;53889;50.084;8.646;2024-01-15T15:11:15;15.32;;;6.63;;
54845;SDS011;53889;50.084;8.646;2024-01-15T15:13:42;15.65;;;6.65;;
54845;SDS011;53889;50.084;8.646;2024-01-15T15:16:09;12.45;;;5.13;;
54845;SDS011;53889;50.084;8.646;2024-01-15T15:18:36;10.02;;;4.93;;
54845;SDS011;53889;50.084;8.646;2024-01-15T15:21:02;11.00;;;4.93;;
54845;SDS011;53889;50.084;8.646;2024-01-15T15:23:29;11.65;;;5.30;;
54845;SDS011;53889;50.084;8.646;2024-01-15T15:25:56;11.23;;;4.82;;
54845;SDS011;53889;50.084;8.646;2024-01-15T15:28:24;10.95;;;5.05;;
54845;SDS011;53889;50.084;8.646;2024-01-15T15:30:51;11.35;;;5.38;;
54845;SDS011;53889;50.084;8.646;2024-01-15T15:33:18;12.40;;;5.55;;
54845;SDS011;53889;50.084;8.646;2024-01-15T15:35:45;11.00;;;5.07;;
54845;SDS011;53889;50.084;8.646;2024-01-15T15:38:13;9.93;;;4.90;;
54845;SDS011;53889;50.084;8.646;2024-01-15T15:40:42;9.13;;;4.88;;
54845;SDS011;53889;50.084;8.646;2024-01-15T15:43:09;9.68;;;4.80;;
54845;SDS011;53889;50.084;8.646;2024-01-15T15:45:37;10.70;;;4.90;;
54845;SDS011;53889;50.084;8.646;2024-01-15T15:48:04;10.25;;;4.45;;
54845;SDS011;53889;50.084;8.646;2024-01-15T15:50:31;10.43;;;4.70;;
54845;SDS011;53889;50.084;8.646;2024-01-15T15:52:58;9.02;;;4.28;;
54845;SDS011;53889;50.084;8.646;2024-01-15T15:55:26;10.20;;;3.90;;
54845;SDS011;53889;50.084;8.646;2024-01-15T15:57:54;8.90;;;4.80;;
54845;SDS011;53889;50.084;8.646;2024-01-15T16:00:21;11.30;;;4.15;;
54845;SDS011;53889;50.084;8.646;2024-01-15T16:02:52;8.32;;;4.05;;
54845;SDS011;53889;50.084;8.646;2024-01-15T16:08:40;10.05;;;4.50;;
54845;SDS011;53889;50.084;8.646;2024-01-15T16:11:10;8.75;;;4.07;;
54845;SDS011;53889;50.084;8.646;2024-01-15T16:13:38;8.30;;;3.83;;
54845;SDS011;53889;50.084;8.646;2024-01-15T16:16:06;11.38;;;3.88;;
54845;SDS011;53889;50.084;8.646;2024-01-15T16:18:48;8.23;;;4.00;;
54845;SDS011;53889;50.084;8.646;2024-01-15T16:21:16;8.55;;;3.95;;
54845;SDS011;53889;50.084;8.646;2024-01-15T16:23:44;9.48;;;3.95;;
54845;SDS011;53889;50.084;8.646;2024-01-15T16:26:11;11.73;;;4.07;;
54845;SDS011;53889;50.084;8.646;2024-01-15T16:28:38;9.10;;;4.28;;
54845;SDS011;53889;50.084;8.646;2024-01-15T16:31:06;9.38;;;3.85;;
54845;SDS011;53889;50.084;8.646;2024-01-15T16:33:33;9.50;;;3.47;;
54845;SDS011;53889;50.084;8.646;2024-01-15T16:36:01;10.63;;;3.55;;
54845;SDS011;53889;50.084;8.646;2024-01-15T16:38:28;10.07;;;3.60;;
54845;SDS011;53889;50.084;8.646;2024-01-15T16:40:56;8.02;;;3.47;;
54845;SDS011;53889;50.084;8.646;2024-01-15T16:43:22;11.02;;;4.07;;
54845;SDS011;53889;50.084;8.646;2024-01-15T16:45:49;9.95;;;3.38;;
54845;SDS011;53889;50.084;8.646;2024-01-15T16:48:17;9.32;;;3.55;;
54845;SDS011;53889;50.084;8.646;2024-01-15T16:50:44;7.18;;;3.00;;
54845;SDS011;53889;50.084;8.646;2024-01-15T16:53:12;8.43;;;3.65;;
54845;SDS011;53889;50.084;8.646;2024-01-15T16:55:40;7.85;;;3.60;;
54845;SDS011;53889;50.084;8.646;2024-01-15T16:58:07;10.15;;;3.20;;
54845;SDS011;53889;50.084;8.646;2024-01-15T17:00:34;7.47;;;3.40;;
54845;SDS011;53889;50.084;8.646;2024-01-15T17:03:01;7.55;;;2.90;;
54845;SDS011;53889;50.084;8.646;2024-01-15T17:05:28;8.20;;;3.50;;
54845;SDS011;53889;50.084;8.646;2024-01-15T17:07:55;9.40;;;3.10;;
54845;SDS011;53889;50.084;8.646;2024-01-15T17:10:23;9.10;;;2.80;;
54845;SDS011;53889;50.084;8.646;2024-01-15T17:12:50;8.75;;;4.22;;
54845;SDS011;53889;50.084;8.646;2024-01-15T17:15:17;9.48;;;3.05;;
54845;SDS011;53889;50.084;8.646;2024-01-15T17:17:44;6.78;;;2.78;;
54845;SDS011;53889;50.084;8.646;2024-01-15T17:20:11;8.60;;;2.72;;
54845;SDS011;53889;50.084;8.646;2024-01-15T17:22:38;6.57;;;2.42;;
54845;SDS011;53889;50.084;8.646;2024-01-15T17:25:06;8.68;;;2.80;;
54845;SDS011;53889;50.084;8.646;2024-01-15T17:27:34;6.05;;;2.58;;
54845;SDS011;53889;50.084;8.646;2024-01-15T17:30:02;7.07;;;2.60;;
54845;SDS011;53889;50.084;8.646;2024-01-15T17:32:29;9.05;;;2.90;;
54845;SDS011;53889;50.084;8.646;2024-01-15T17:34:55;6.10;;;2.83;;
54845;SDS011;53889;50.084;8.646;2024-01-15T17:37:23;10.27;;;2.83;;
54845;SDS011;53889;50.084;8.646;2024-01-15T17:39:50;13.40;;;4.07;;
54845;SDS011;53889;50.084;8.646;2024-01-15T17:42:18;7.35;;;3.00;;
54845;SDS011;53889;50.084;8.646;2024-01-15T17:44:46;7.28;;;2.35;;
54845;SDS011;53889;50.084;8.646;2024-01-15T17:47:13;6.40;;;2.55;;
54845;SDS011;53889;50.084;8.646;2024-01-15T17:49:40;5.97;;;2.88;;
54845;SDS011;53889;50.084;8.646;2024-01-15T17:52:07;8.18;;;2.70;;
54845;SDS011;53889;50.084;8.646;2024-01-15T17:54:34;6.38;;;2.80;;
54845;SDS011;53889;50.084;8.646;2024-01-15T17:57:01;6.63;;;2.33;;
54845;SDS011;53889;50.084;8.646;2024-01-15T17:59:29;4.78;;;2.25;;
54845;SDS011;53889;50.084;8.646;2024-01-15T18:01:58;6.82;;;2.80;;
54845;SDS011;53889;50.084;8.646;2024-01-15T18:04:24;5.40;;;2.40;;
54845;SDS011;53889;50.084;8.646;2024-01-15T18:06:51;9.18;;;2.40;;
54845;SDS011;53889;50.084;8.646;2024-01-15T18:09:19;5.68;;;2.08;;
54845;SDS011;53889;50.084;8.646;2024-01-15T18:11:45;5.15;;;2.42;;
54845;SDS011;53889;50.084;8.646;2024-01-15T18:14:12;5.93;;;2.53;;
54845;SDS011;53889;50.084;8.646;2024-01-15T18:16:40;5.10;;;2.40;;
54845;SDS011;53889;50.084;8.646;2024-01-15T18:19:11;6.97;;;2.50;;
54845;SDS011;53889;50.084;8.646;2024-01-15T18:21:38;7.50;;;2.67;;
54845;SDS011;53889;50.084;8.646;2024-01-15T18:24:05;4.97;;;2.30;;
54845;SDS011;53889;50.084;8.646;2024-01-15T18:26:32;6.15;;;2.60;;
54845;SDS011;53889;50.084;8.646;2024-01-15T18:29:01;7.10;;;3.53;;
54845;SDS011;53889;50.084;8.646;2024-01-15T18:31:28;6.90;;;2.38;;
54845;SDS011;53889;50.084;8.646;2024-01-15T18:33:55;7.10;;;2.30;;
54845;SDS011;53889;50.084;8.646;2024-01-15T18:36:24;5.32;;;2.65;;
54845;SDS011;53889;50.084;8.646;2024-01-15T18:38:51;6.72;;;2.55;;
54845;SDS011;53889;50.084;8.646;2024-01-15T18:41:21;5.80;;;2.47;;
54845;SDS011;53889;50.084;8.646;2024-01-15T18:43:49;8.30;;;2.92;;
54845;SDS011;53889;50.084;8.646;2024-01-15T18:46:17;7.22;;;2.60;;
54845;SDS011;53889;50.084;8.646;2024-01-15T18:48:45;7.15;;;2.67;;
54845;SDS011;53889;50.084;8.646;2024-01-15T18:51:18;7.10;;;2.30;;
54845;SDS011;53889;50.084;8.646;2024-01-15T18:53:47;6.32;;;2.63;;
54845;SDS011;53889;50.084;8.646;2024-01-15T18:56:14;8.05;;;2.72;;
54845;SDS011;53889;50.084;8.646;2024-01-15T18:58:42;5.35;;;2.47;;
54845;SDS011;53889;50.084;8.646;2024-01-15T19:01:09;7.63;;;2.90;;
54845;SDS011;53889;50.084;8.646;2024-01-15T19:03:38;4.68;;;2.67;;
54845;SDS011;53889;50.084;8.646;2024-01-15T19:06:05;4.90;;;2.67;;
54845;SDS011;53889;50.084;8.646;2024-01-15T19:08:32;7.13;;;2.75;;
54845;SDS011;53889;50.084;8.646;2024-01-15T19:11:01;7.45;;;2.88;;
54845;SDS011;53889;50.084;8.646;2024-01-15T19:13:29;9.63;;;4.97;;
54845;SDS011;53889;50.084;8.646;2024-01-15T19:15:56;13.52;;;7.05;;
54845;SDS011;53889;50.084;8.646;2024-01-15T19:18:24;6.47;;;2.88;;
54845;SDS011;53889;50.084;8.646;2024-01-15T19:20:52;7.20;;;2.75;;
54845;SDS011;53889;50.084;8.646;2024-01-15T19:23:20;6.18;;;2.70;;
54845;SDS011;53889;50.084;8.646;2024-01-15T19:25:49;4.97;;;2.55;;
54845;SDS011;53889;50.084;8.646;2024-01-15T19:28:17;6.38;;;2.80;;
54845;SDS011;53889;50.084;8.646;2024-01-15T19:30:44;7.25;;;2.92;;
54845;SDS011;53889;50.084;8.646;2024-01-15T19:33:14;4.95;;;2.58;;
54845;SDS011;53889;50.084;8.646;2024-01-15T19:35:42;4.97;;;2.63;;
54845;SDS011;53889;50.084;8.646;2024-01-15T19:38:09;6.90;;;2.80;;
54845;SDS011;53889;50.084;8.646;2024-01-15T19:40:37;5.25;;;2.50;;
54845;SDS011;53889;50.084;8.646;2024-01-15T19:43:04;7.22;;;2.80;;
54845;SDS011;53889;50.084;8.646;2024-01-15T19:45:32;7.10;;;2.90;;
54845;SDS011;53889;50.084;8.646;2024-01-15T19:47:59;5.50;;;2.40;;
54845;SDS011;53889;50.084;8.646;2024-01-15T19:50:29;7.50;;;2.28;;
54845;SDS011;53889;50.084;8.646;2024-01-15T19:52:56;5.32;;;2.60;;
54845;SDS011;53889;50.084;8.646;2024-01-15T19:55:24;4.45;;;2.38;;
54845;SDS011;53889;50.084;8.646;2024-01-15T19:57:52;7.63;;;2.53;;
54845;SDS011;53889;50.084;8.646;2024-01-15T20:00:19;7.45;;;2.40;;
54845;SDS011;53889;50.084;8.646;2024-01-15T20:02:48;6.72;;;2.70;;
54845;SDS011;53889;50.084;8.646;2024-01-15T20:05:15;10.82;;;3.50;;
54845;SDS011;53889;50.084;8.646;2024-01-15T20:07:43;8.13;;;2.72;;
54845;SDS011;53889;50.084;8.646;2024-01-15T20:10:10;6.03;;;2.35;;
54845;SDS011;53889;50.084;8.646;2024-01-15T20:12:38;8.23;;;2.60;;
54845;SDS011;53889;50.084;8.646;2024-01-15T20:15:06;5.45;;;2.40;;
54845;SDS011;53889;50.084;8.646;2024-01-15T20:17:33;5.75;;;2.40;;
54845;SDS011;53889;50.084;8.646;2024-01-15T20:20:02;6.43;;;2.20;;
54845;SDS011;53889;50.084;8.646;2024-01-15T20:22:29;4.65;;;2.70;;
54845;SDS011;53889;50.084;8.646;2024-01-15T20:24:57;6.22;;;2.17;;
54845;SDS011;53889;50.084;8.646;2024-01-15T20:27:24;8.02;;;2.10;;
54845;SDS011;53889;50.084;8.646;2024-01-15T20:29:51;5.90;;;2.35;;
54845;SDS011;53889;50.084;8.646;2024-01-15T20:32:18;6.45;;;2.47;;
54845;SDS011;53889;50.084;8.646;2024-01-15T20:34:46;8.73;;;2.28;;
54845;SDS011;53889;50.084;8.646;2024-01-15T20:37:15;4.50;;;1.90;;
54845;SDS011;53889;50.084;8.646;2024-01-15T20:39:42;7.35;;;2.10;;
54845;SDS011;53889;50.084;8.646;2024-01-15T20:42:09;4.90;;;1.95;;
54845;SDS011;53889;50.084;8.646;2024-01-15T20:44:36;4.45;;;2.03;;
54845;SDS011;53889;50.084;8.646;2024-01-15T20:47:05;6.43;;;2.10;;
54845;SDS011;53889;50.084;8.646;2024-01-15T20:49:35;6.88;;;2.03;;
54845;SDS011;53889;50.084;8.646;2024-01-15T20:52:03;5.25;;;2.03;;
54845;SDS011;53889;50.084;8.646;2024-01-15T20:54:31;6.95;;;1.98;;
54845;SDS011;53889;50.084;8.646;2024-01-15T20:56:59;5.70;;;2.10;;
54845;SDS011;53889;50.084;8.646;2024-01-15T20:59:31;7.25;;;3.10;;
54845;SDS011;53889;50.084;8.646;2024-01-15T21:01:58;7.53;;;2.72;;
54845;SDS011;53889;50.084;8.646;2024-01-15T21:04:25;6.03;;;2.72;;
54845;SDS011;53889;50.084;8.646;2024-01-15T21:06:52;6.93;;;3.45;;
54845;SDS011;53889;50.084;8.646;2024-01-15T21:09:21;8.98;;;2.60;;
54845;SDS011;53889;50.084;8.646;2024-01-15T21:11:50;7.22;;;2.30;;
54845;SDS011;53889;50.084;8.646;2024-01-15T21:14:17;9.40;;;3.50;;
54845;SDS011;53889;50.084;8.646;2024-01-15T21:16:44;6.50;;;2.78;;
54845;SDS011;53889;50.084;8.646;2024-01-15T21:19:12;6.57;;;2.30;;
54845;SDS011;53889;50.084;8.646;2024-01-15T21:21:40;8.68;;;2.65;;
54845;SDS011;53889;50.084;8.646;2024-01-15T21:24:07;8.57;;;2.83;;
54845;SDS011;53889;50.084;8.646;2024-01-15T21:26:35;7.32;;;3.30;;
54845;SDS011;53889;50.084;8.646;2024-01-15T21:29:03;8.45;;;2.40;;
54845;SDS011;53889;50.084;8.646;2024-01-15T21:31:34;5.95;;;2.40;;
54845;SDS011;53889;50.084;8.646;2024-01-15T21:34:03;7.00;;;2.47;;
54845;SDS011;53889;50.084;8.646;2024-01-15T21:36:31;5.82;;;2.60;;
54845;SDS011;53889;50.084;8.646;2024-01-15T21:38:59;6.22;;;2.40;;
54845;SDS011;53889;50.084;8.646;2024-01-15T21:41:26;4.05;;;2.05;;
54845;SDS011;53889;50.084;8.646;2024-01-15T21:44:02;5.45;;;2.03;;